createdAt,value
2018-02-11T00:00:12.167Z,96.90
2018-02-11T00:02:39.812Z,97.30
2018-02-11T00:05:07.476Z,97.20
2018-02-11T00:07:35.206Z,97.00
2018-02-11T00:10:02.869Z,97.40
2018-02-11T00:12:31.277Z,97.70
2018-02-11T00:14:58.959Z,97.40
2018-02-11T00:17:26.603Z,97.30
2018-02-11T00:19:54.271Z,97.40
2018-02-11T00:22:21.918Z,97.70
2018-02-11T00:24:49.620Z,97.70
2018-02-11T00:27:17.298Z,97.70
2018-02-11T00:29:44.942Z,97.90
2018-02-11T00:32:12.586Z,97.90
2018-02-11T00:34:40.311Z,98.00
2018-02-11T00:37:07.970Z,98.20
2018-02-11T00:39:36.377Z,98.60
2018-02-11T00:42:04.060Z,98.60
2018-02-11T00:44:31.726Z,98.40
2018-02-11T00:46:59.381Z,98.50
2018-02-11T00:49:27.013Z,98.60
2018-02-11T00:51:55.469Z,98.40
2018-02-11T00:54:23.103Z,98.40
2018-02-11T00:56:50.746Z,98.50
2018-02-11T00:59:18.419Z,98.30
2018-02-11T01:01:46.051Z,98.20
2018-02-11T01:04:13.687Z,97.70
2018-02-11T01:06:42.170Z,97.30
2018-02-11T01:09:10.572Z,96.80
2018-02-11T01:11:38.214Z,96.80
2018-02-11T01:14:06.693Z,96.40
2018-02-11T01:16:35.107Z,96.50
2018-02-11T01:19:02.753Z,96.50
2018-02-11T01:21:30.435Z,96.70
2018-02-11T01:23:58.090Z,96.50
2018-02-11T01:26:25.742Z,96.60
2018-02-11T01:28:53.405Z,96.90
2018-02-11T01:31:21.023Z,96.60
2018-02-11T01:33:48.685Z,96.40
2018-02-11T01:36:16.372Z,96.30
2018-02-11T01:38:44.801Z,96.10
2018-02-11T01:41:12.448Z,96.10
2018-02-11T01:43:40.095Z,96.00
2018-02-11T01:46:07.810Z,96.00
2018-02-11T01:48:35.458Z,95.80
2018-02-11T01:51:03.108Z,95.70
2018-02-11T01:53:30.793Z,95.50
2018-02-11T01:55:58.449Z,95.70
2018-02-11T01:58:26.077Z,95.50
2018-02-11T02:00:53.741Z,95.50
2018-02-11T02:03:21.422Z,95.70
2018-02-11T02:05:49.066Z,95.80
2018-02-11T02:08:16.692Z,95.40
2018-02-11T02:10:45.120Z,95.40
2018-02-11T02:13:12.761Z,95.40
2018-02-11T02:15:40.410Z,95.20
2018-02-11T02:18:08.087Z,95.30
2018-02-11T02:20:35.748Z,95.40
2018-02-11T02:23:03.394Z,95.20
2018-02-11T02:25:31.051Z,95.20
2018-02-11T02:27:58.731Z,95.00
2018-02-11T02:30:26.414Z,94.90
2018-02-11T02:32:54.040Z,95.30
2018-02-11T02:35:21.701Z,95.30
2018-02-11T02:37:49.352Z,95.30
2018-02-11T02:40:17.769Z,95.50
2018-02-11T02:42:45.443Z,95.50
2018-02-11T02:45:13.086Z,95.60
2018-02-11T02:47:40.744Z,95.80
2018-02-11T02:50:08.426Z,95.90
2018-02-11T02:52:36.097Z,96.10
2018-02-11T02:55:03.767Z,96.50
2018-02-11T02:57:31.433Z,96.90
2018-02-11T02:59:59.087Z,96.70
2018-02-11T03:02:26.753Z,96.50
2018-02-11T03:04:54.429Z,96.30
2018-02-11T03:07:22.061Z,96.30
2018-02-11T03:09:49.718Z,96.70
2018-02-11T03:12:17.383Z,97.10
2018-02-11T03:14:45.025Z,97.30
2018-02-11T03:17:12.672Z,97.20
2018-02-11T03:19:40.305Z,97.20
2018-02-11T03:22:07.962Z,96.90
2018-02-11T03:24:35.620Z,96.80
2018-02-11T03:27:03.262Z,96.30
2018-02-11T03:29:30.919Z,95.90
2018-02-11T03:31:58.562Z,95.80
2018-02-11T03:34:26.237Z,95.90
2018-02-11T03:36:53.888Z,96.20
2018-02-11T03:39:21.566Z,95.70
2018-02-11T03:41:49.218Z,95.70
2018-02-11T03:44:16.863Z,95.80
2018-02-11T03:46:44.534Z,95.80
2018-02-11T03:49:12.205Z,95.80
2018-02-11T03:51:39.839Z,95.80
2018-02-11T03:54:07.471Z,95.10
2018-02-11T03:56:35.921Z,94.80
2018-02-11T03:59:03.556Z,94.80
2018-02-11T04:01:31.199Z,94.20
2018-02-11T04:03:58.861Z,93.90
2018-02-11T04:06:26.533Z,93.50
2018-02-11T04:08:54.191Z,93.00
2018-02-11T04:11:21.890Z,92.90
2018-02-11T04:13:49.526Z,92.30
2018-02-11T04:16:17.173Z,92.10
2018-02-11T04:18:44.844Z,92.30
2018-02-11T04:21:12.481Z,92.10
2018-02-11T04:23:41.619Z,90.80
2018-02-11T04:26:09.268Z,90.80
2018-02-11T04:28:36.908Z,90.80
2018-02-11T04:31:05.311Z,89.50
2018-02-11T04:33:32.963Z,89.50
2018-02-11T04:36:00.593Z,88.80
2018-02-11T04:38:28.988Z,89.50
2018-02-11T04:40:57.422Z,89.40
2018-02-11T04:43:25.057Z,89.40
2018-02-11T04:45:52.699Z,87.60
2018-02-11T04:48:20.355Z,87.30
2018-02-11T04:50:47.987Z,86.90
2018-02-11T04:53:15.636Z,87.70
2018-02-11T04:55:43.294Z,88.20
2018-02-11T04:58:10.956Z,88.50
2018-02-11T05:00:38.634Z,89.10
2018-02-11T05:03:06.279Z,90.00
2018-02-11T05:05:33.918Z,90.20
2018-02-11T05:08:01.572Z,90.50
2018-02-11T05:10:29.256Z,90.90
2018-02-11T05:12:56.915Z,90.90
2018-02-11T05:15:24.549Z,91.30
2018-02-11T05:17:52.203Z,91.50
2018-02-11T05:20:19.865Z,91.60
2018-02-11T05:22:47.525Z,92.00
2018-02-11T05:25:15.197Z,92.20
2018-02-11T05:27:42.834Z,92.40
2018-02-11T05:30:11.233Z,92.60
2018-02-11T05:32:38.900Z,92.60
2018-02-11T05:35:06.578Z,93.00
2018-02-11T05:37:34.249Z,93.20
2018-02-11T05:40:01.916Z,93.30
2018-02-11T05:42:29.598Z,93.60
2018-02-11T05:44:57.437Z,93.90
2018-02-11T05:47:25.083Z,93.80
2018-02-11T05:49:52.738Z,93.70
2018-02-11T05:52:20.375Z,94.30
2018-02-11T05:54:48.839Z,94.60
2018-02-11T05:57:16.501Z,94.60
2018-02-11T05:59:44.142Z,95.00
2018-02-11T06:02:11.799Z,94.90
2018-02-11T06:04:39.459Z,94.70
2018-02-11T06:07:07.138Z,94.70
2018-02-11T06:09:34.792Z,94.80
2018-02-11T06:12:02.447Z,95.30
2018-02-11T06:14:30.133Z,95.40
2018-02-11T06:16:58.551Z,95.10
2018-02-11T06:19:26.218Z,95.10
2018-02-11T06:21:53.854Z,95.20
2018-02-11T06:24:22.278Z,95.30
2018-02-11T06:26:50.007Z,95.30
2018-02-11T06:29:17.691Z,95.30
2018-02-11T06:31:45.324Z,95.70
2018-02-11T06:34:12.983Z,96.10
2018-02-11T06:36:40.635Z,95.60
2018-02-11T06:39:09.049Z,94.70
2018-02-11T06:41:36.695Z,94.60
2018-02-11T06:44:04.333Z,94.10
2018-02-11T06:46:32.769Z,94.30
2018-02-11T06:49:00.432Z,94.30
2018-02-11T06:51:28.065Z,93.70
2018-02-11T06:53:55.756Z,92.60
2018-02-11T06:56:24.151Z,92.00
2018-02-11T06:58:51.796Z,92.00
2018-02-11T07:01:20.240Z,91.50
2018-02-11T07:03:47.870Z,91.70
2018-02-11T07:06:15.557Z,91.40
2018-02-11T07:08:44.055Z,92.50
2018-02-11T07:11:11.700Z,92.50
2018-02-11T07:16:14.237Z,91.70
2018-02-11T07:18:41.868Z,90.60
2018-02-11T07:21:09.501Z,91.10
2018-02-11T07:23:37.969Z,90.10
2018-02-11T07:26:05.597Z,90.00
2018-02-11T07:28:33.223Z,87.80
2018-02-11T07:31:00.906Z,86.00
2018-02-11T07:33:28.595Z,85.80
2018-02-11T07:35:56.243Z,86.90
2018-02-11T07:38:23.930Z,85.40
2018-02-11T07:40:51.558Z,85.20
2018-02-11T07:43:19.179Z,86.40
2018-02-11T07:45:47.605Z,84.90
2018-02-11T07:48:15.247Z,84.90
2018-02-11T07:50:42.888Z,83.70
2018-02-11T07:53:11.326Z,80.30
2018-02-11T07:55:38.965Z,80.10
2018-02-11T07:58:06.657Z,79.50
2018-02-11T08:00:34.298Z,79.40
2018-02-11T08:03:01.921Z,80.20
2018-02-11T08:05:30.360Z,79.90
2018-02-11T08:07:57.984Z,79.90
2018-02-11T08:10:25.625Z,79.40
2018-02-11T08:12:53.281Z,79.90
2018-02-11T08:15:21.710Z,81.00
2018-02-11T08:17:49.341Z,81.00
2018-02-11T08:20:16.999Z,80.60
2018-02-11T08:22:44.615Z,80.00
2018-02-11T08:25:12.264Z,80.30
2018-02-11T08:27:39.930Z,79.10
2018-02-11T08:30:07.587Z,78.10
2018-02-11T08:32:35.237Z,78.60
2018-02-11T08:35:02.869Z,78.50
2018-02-11T08:37:30.532Z,76.40
2018-02-11T08:39:58.172Z,75.70
2018-02-11T08:42:26.568Z,75.20
2018-02-11T08:44:54.230Z,75.10
2018-02-11T08:47:21.861Z,74.00
2018-02-11T08:49:49.498Z,74.60
2018-02-11T08:52:17.153Z,74.30
2018-02-11T08:54:44.865Z,73.10
2018-02-11T08:57:12.553Z,72.20
2018-02-11T08:59:40.233Z,70.60
2018-02-11T09:02:07.866Z,70.50
2018-02-11T09:04:35.501Z,68.40
2018-02-11T09:07:03.958Z,68.80
2018-02-11T09:09:31.608Z,68.80
2018-02-11T09:11:59.234Z,68.60
2018-02-11T09:14:26.923Z,68.40
2018-02-11T09:16:54.566Z,68.20
2018-02-11T09:19:22.223Z,68.30
2018-02-11T09:21:49.877Z,67.40
2018-02-11T09:24:17.503Z,67.20
2018-02-11T09:26:45.173Z,66.70
2018-02-11T09:29:13.560Z,65.60
2018-02-11T09:31:42.014Z,66.50
2018-02-11T09:34:09.651Z,66.50
2018-02-11T09:36:37.310Z,68.90
2018-02-11T09:39:04.972Z,68.20
2018-02-11T09:41:32.600Z,66.80
2018-02-11T09:44:00.254Z,66.90
2018-02-11T09:46:28.655Z,65.80
2018-02-11T09:48:56.330Z,65.80
2018-02-11T09:51:23.969Z,64.70
2018-02-11T09:53:51.605Z,64.50
2018-02-11T09:56:20.011Z,63.80
2018-02-11T09:58:47.680Z,63.70
2018-02-11T10:01:15.364Z,63.90
2018-02-11T10:03:43.021Z,63.00
2018-02-11T10:06:10.666Z,61.50
2018-02-11T10:08:38.383Z,62.10
2018-02-11T10:11:06.827Z,63.00
2018-02-11T10:13:34.473Z,63.00
2018-02-11T10:16:02.118Z,63.70
2018-02-11T10:18:29.804Z,64.30
2018-02-11T10:20:57.523Z,64.10
2018-02-11T10:23:25.966Z,65.60
2018-02-11T10:25:53.609Z,65.60
2018-02-11T10:28:21.258Z,67.10
2018-02-11T10:30:48.927Z,67.40
2018-02-11T10:33:16.617Z,68.00
2018-02-11T10:35:44.273Z,68.30
2018-02-11T10:38:11.966Z,69.20
2018-02-11T10:40:41.365Z,70.50
2018-02-11T10:43:08.996Z,70.40
2018-02-11T10:45:36.645Z,71.40
2018-02-11T10:48:04.358Z,71.60
2018-02-11T10:50:32.771Z,71.40
2018-02-11T10:53:00.479Z,71.40
2018-02-11T10:55:28.103Z,71.90
2018-02-11T10:57:56.090Z,72.00
2018-02-11T11:00:23.733Z,72.60
2018-02-11T11:02:51.408Z,72.90
2018-02-11T11:05:19.205Z,74.10
2018-02-11T11:07:46.862Z,74.90
2018-02-11T11:10:14.521Z,76.60
2018-02-11T11:12:42.329Z,78.00
2018-02-11T11:15:10.085Z,78.80
2018-02-11T11:17:38.506Z,80.20
2018-02-11T11:20:06.174Z,80.20
2018-02-11T11:22:33.855Z,80.80
2018-02-11T11:25:01.502Z,82.20
2018-02-11T11:27:29.172Z,82.70
2018-02-11T11:29:56.911Z,83.60
2018-02-11T11:32:24.557Z,83.80
2018-02-11T11:34:52.220Z,84.00
2018-02-11T11:37:19.866Z,85.80
2018-02-11T11:39:48.287Z,86.90
2018-02-11T11:42:15.932Z,86.90
2018-02-11T11:44:43.610Z,86.40
2018-02-11T11:47:11.292Z,87.30
2018-02-11T11:49:38.911Z,88.20
2018-02-11T11:52:06.595Z,90.60
2018-02-11T11:54:34.248Z,91.20
2018-02-11T11:57:01.921Z,92.10
2018-02-11T11:59:29.598Z,92.00
2018-02-11T12:01:57.231Z,92.90
2018-02-11T12:04:24.869Z,93.40
2018-02-11T12:06:52.542Z,93.40
2018-02-11T12:09:20.180Z,94.40
2018-02-11T12:11:48.604Z,95.00
2018-02-11T12:14:16.235Z,95.00
2018-02-11T12:16:43.907Z,95.50
2018-02-11T12:19:11.558Z,96.30
2018-02-11T12:21:39.189Z,96.40
2018-02-11T12:24:06.902Z,96.80
2018-02-11T12:26:34.537Z,97.10
2018-02-11T12:29:02.990Z,97.10
2018-02-11T12:31:30.799Z,97.10
2018-02-11T12:33:58.468Z,96.70
2018-02-11T12:36:26.153Z,96.30
2018-02-11T12:38:53.812Z,96.40
2018-02-11T12:41:21.447Z,96.60
2018-02-11T12:43:49.110Z,96.10
2018-02-11T12:46:16.768Z,96.10
2018-02-11T12:48:44.442Z,96.30
2018-02-11T12:51:12.117Z,96.20
2018-02-11T12:53:39.784Z,95.90
2018-02-11T12:56:07.520Z,95.90
2018-02-11T12:58:35.187Z,95.90
2018-02-11T13:01:03.618Z,96.30
2018-02-11T13:03:31.326Z,96.20
2018-02-11T13:05:59.027Z,96.40
2018-02-11T13:08:26.670Z,96.30
2018-02-11T13:10:54.322Z,96.40
2018-02-11T13:13:21.966Z,96.30
2018-02-11T13:15:49.629Z,96.60
2018-02-11T13:18:17.269Z,96.70
2018-02-11T13:20:45.682Z,96.80
2018-02-11T13:23:13.346Z,96.80
2018-02-11T13:25:41.040Z,96.70
2018-02-11T13:28:08.689Z,96.60
2018-02-11T13:30:36.371Z,96.60
2018-02-11T13:33:04.020Z,96.20
2018-02-11T13:35:31.675Z,96.30
2018-02-11T13:37:59.350Z,96.50
2018-02-11T13:40:27.002Z,96.60
2018-02-11T13:42:54.676Z,96.70
2018-02-11T13:45:22.322Z,96.50
2018-02-11T13:47:50.032Z,96.70
2018-02-11T13:50:18.522Z,96.60
2018-02-11T13:52:46.164Z,96.60
2018-02-11T13:55:13.823Z,96.80
2018-02-11T13:57:41.501Z,96.50
2018-02-11T14:00:09.953Z,97.10
2018-02-11T14:02:37.628Z,97.10
2018-02-11T14:05:06.142Z,97.20
2018-02-11T14:07:33.789Z,97.00
2018-02-11T14:10:02.229Z,97.40
2018-02-11T14:12:29.879Z,97.40
2018-02-11T14:14:57.555Z,97.90
2018-02-11T14:17:25.237Z,98.30
2018-02-11T14:19:52.874Z,98.30
2018-02-11T14:22:20.536Z,99.00
2018-02-11T14:24:48.172Z,98.90
2018-02-11T14:27:15.805Z,98.90
2018-02-11T14:29:44.289Z,98.50
2018-02-11T14:32:11.939Z,98.50
2018-02-11T14:34:40.348Z,98.80
2018-02-11T14:37:07.997Z,98.80
2018-02-11T14:39:35.645Z,98.60
2018-02-11T14:42:03.325Z,99.30
2018-02-11T14:44:30.985Z,99.50
2018-02-11T14:46:58.662Z,99.80
2018-02-11T14:49:26.300Z,99.70
2018-02-11T14:51:53.980Z,99.90
2018-02-11T14:54:21.640Z,99.90
2018-02-11T14:56:49.310Z,99.90
2018-02-11T14:59:16.970Z,99.90
2018-02-11T15:01:44.629Z,99.90
2018-02-11T15:04:12.251Z,99.90
2018-02-11T15:06:40.693Z,99.90
2018-02-11T15:09:08.356Z,99.90
2018-02-11T15:11:36.034Z,99.90
2018-02-11T15:14:03.709Z,99.90
2018-02-11T15:16:31.374Z,99.90
2018-02-11T15:18:59.829Z,99.90
2018-02-11T15:21:27.461Z,99.90
2018-02-11T15:23:55.122Z,99.80
2018-02-11T15:26:22.759Z,99.70
2018-02-11T15:28:51.201Z,99.60
2018-02-11T15:31:18.863Z,99.60
2018-02-11T15:33:46.520Z,99.40
2018-02-11T15:36:14.212Z,99.30
2018-02-11T15:38:42.629Z,99.10
2018-02-11T15:41:10.289Z,99.10
2018-02-11T15:43:37.946Z,99.30
2018-02-11T15:46:05.618Z,99.20
2018-02-11T15:48:33.278Z,98.90
2018-02-11T15:51:00.917Z,99.30
2018-02-11T15:53:29.386Z,99.30
2018-02-11T15:55:57.771Z,99.10
2018-02-11T15:58:26.199Z,99.00
2018-02-11T16:00:53.843Z,98.90
2018-02-11T16:03:21.481Z,99.00
2018-02-11T16:05:49.162Z,99.10
2018-02-11T16:08:16.788Z,99.40
2018-02-11T16:10:45.194Z,99.70
2018-02-11T16:13:12.853Z,99.60
2018-02-11T16:15:40.510Z,99.70
2018-02-11T16:18:08.159Z,99.60
2018-02-11T16:20:36.622Z,99.70
2018-02-11T16:23:04.287Z,99.70
2018-02-11T16:25:31.969Z,99.70
2018-02-11T16:28:00.362Z,99.80
2018-02-11T16:30:28.013Z,99.80
2018-02-11T16:32:55.702Z,99.90
2018-02-11T16:35:23.349Z,99.80
2018-02-11T16:37:51.013Z,99.90
2018-02-11T16:40:18.659Z,99.90
2018-02-11T16:42:47.094Z,99.90
2018-02-11T16:45:14.748Z,99.90
2018-02-11T16:47:42.390Z,99.90
2018-02-11T16:50:10.078Z,99.90
2018-02-11T16:52:37.730Z,99.90
2018-02-11T16:55:05.374Z,99.90
2018-02-11T16:57:33.038Z,99.90
2018-02-11T17:00:00.682Z,99.90
2018-02-11T17:02:28.337Z,99.90
2018-02-11T17:04:55.971Z,99.90
2018-02-11T17:07:23.656Z,99.90
2018-02-11T17:09:51.296Z,99.90
2018-02-11T17:12:19.714Z,99.90
2018-02-11T17:14:47.433Z,99.90
2018-02-11T17:17:15.079Z,99.90
2018-02-11T17:19:42.741Z,99.90
2018-02-11T17:22:10.373Z,99.90
2018-02-11T17:24:38.062Z,99.90
2018-02-11T17:27:05.692Z,99.90
2018-02-11T17:29:33.327Z,99.90
2018-02-11T17:32:01.739Z,99.90
2018-02-11T17:34:29.378Z,99.90
2018-02-11T17:36:57.052Z,99.90
2018-02-11T17:39:24.701Z,99.90
2018-02-11T17:41:52.353Z,99.90
2018-02-11T17:44:20.782Z,99.90
2018-02-11T17:46:48.457Z,99.90
2018-02-11T17:49:16.104Z,99.90
2018-02-11T17:51:43.757Z,99.90
2018-02-11T17:54:11.403Z,99.90
2018-02-11T17:56:39.036Z,99.90
2018-02-11T17:59:07.477Z,99.90
2018-02-11T18:01:35.132Z,99.90
2018-02-11T18:04:02.755Z,99.90
2018-02-11T18:06:30.400Z,99.90
2018-02-11T18:08:58.831Z,99.90
2018-02-11T18:11:26.477Z,99.90
2018-02-11T18:13:54.113Z,99.90
2018-02-11T18:16:21.776Z,99.90
2018-02-11T18:18:49.462Z,99.90
2018-02-11T18:21:17.128Z,99.90
2018-02-11T18:23:44.784Z,99.90
2018-02-11T18:26:12.460Z,99.90
2018-02-11T18:28:40.099Z,99.90
2018-02-11T18:31:07.728Z,99.90
2018-02-11T18:33:36.165Z,99.90
2018-02-11T18:36:03.805Z,99.90
2018-02-11T18:38:31.474Z,99.90
2018-02-11T18:40:59.114Z,99.90
2018-02-11T18:43:26.735Z,99.90
2018-02-11T18:45:54.424Z,99.90
2018-02-11T18:48:22.062Z,99.90
2018-02-11T18:50:49.747Z,99.90
2018-02-11T18:53:17.424Z,99.90
2018-02-11T18:55:45.080Z,99.90
2018-02-11T18:58:12.750Z,99.90
2018-02-11T19:00:40.423Z,99.90
2018-02-11T19:03:08.110Z,99.90
2018-02-11T19:05:35.769Z,99.90
2018-02-11T19:08:03.500Z,99.90
2018-02-11T19:10:31.167Z,99.90
2018-02-11T19:12:58.797Z,99.90
2018-02-11T19:15:27.228Z,99.90
2018-02-11T19:17:54.874Z,99.90
2018-02-11T19:20:22.567Z,99.90
2018-02-11T19:22:50.218Z,99.90
2018-02-11T19:25:17.877Z,99.90
2018-02-11T19:27:45.538Z,99.90
2018-02-11T19:30:13.211Z,99.90
2018-02-11T19:32:40.879Z,99.90
2018-02-11T19:35:08.563Z,99.90
2018-02-11T19:37:36.233Z,99.90
2018-02-11T19:40:03.869Z,99.90
2018-02-11T19:42:31.511Z,99.90
2018-02-11T19:44:59.174Z,99.90
2018-02-11T19:47:26.834Z,99.90
2018-02-11T19:49:54.498Z,99.90
2018-02-11T19:52:22.136Z,99.90
2018-02-11T19:54:49.803Z,99.90
2018-02-11T19:57:17.456Z,99.90
2018-02-11T19:59:45.093Z,99.90
2018-02-11T20:02:13.538Z,99.90
2018-02-11T20:04:41.163Z,99.90
2018-02-11T20:07:10.779Z,99.90
2018-02-11T20:09:38.424Z,99.90
2018-02-11T20:12:06.089Z,99.90
2018-02-11T20:14:34.696Z,99.90
2018-02-11T20:17:02.367Z,99.90
2018-02-11T20:19:30.060Z,99.90
2018-02-11T20:21:57.688Z,99.90
2018-02-11T20:24:25.333Z,99.90
2018-02-11T20:26:53.014Z,99.90
2018-02-11T20:29:20.657Z,99.90
2018-02-11T20:31:48.283Z,99.90
2018-02-11T20:34:16.712Z,99.90
2018-02-11T20:36:44.357Z,99.90
2018-02-11T20:39:12.943Z,99.90
2018-02-11T20:41:40.616Z,99.90
2018-02-11T20:44:08.283Z,99.90
2018-02-11T20:46:36.901Z,99.90
2018-02-11T20:49:04.540Z,99.90
2018-02-11T20:51:32.223Z,99.90
2018-02-11T20:53:59.857Z,99.90
2018-02-11T20:56:27.502Z,99.90
2018-02-11T20:58:55.163Z,99.90
2018-02-11T21:01:22.817Z,99.90
2018-02-11T21:03:51.380Z,99.90
2018-02-11T21:06:19.034Z,99.90
2018-02-11T21:08:47.477Z,99.90
2018-02-11T21:11:15.125Z,99.90
2018-02-11T21:13:43.548Z,99.90
2018-02-11T21:16:11.211Z,99.90
2018-02-11T21:18:39.624Z,99.90
2018-02-11T21:21:07.347Z,99.90
2018-02-11T21:23:34.977Z,99.90
2018-02-11T21:26:02.674Z,99.90
2018-02-11T21:28:31.103Z,99.90
2018-02-11T21:30:58.749Z,99.90
2018-02-11T21:33:26.419Z,99.90
2018-02-11T21:35:54.085Z,99.90
2018-02-11T21:38:21.736Z,99.90
2018-02-11T21:40:49.380Z,99.90
2018-02-11T21:43:17.050Z,99.90
2018-02-11T21:45:44.728Z,99.90
2018-02-11T21:48:12.385Z,99.90
2018-02-11T21:50:40.066Z,99.90
2018-02-11T21:53:07.711Z,99.90
2018-02-11T21:55:35.347Z,99.90
2018-02-11T21:58:03.774Z,99.90
2018-02-11T22:00:31.399Z,99.90
2018-02-11T22:03:04.022Z,99.90
2018-02-11T22:05:31.656Z,99.90
2018-02-11T22:07:59.320Z,99.90
2018-02-11T22:10:26.966Z,99.90
2018-02-11T22:12:54.650Z,99.90
2018-02-11T22:15:22.287Z,99.90
2018-02-11T22:17:49.934Z,99.90
2018-02-11T22:20:17.598Z,99.90
2018-02-11T22:22:46.006Z,99.90
2018-02-11T22:25:13.709Z,99.90
2018-02-11T22:27:41.350Z,99.90
2018-02-11T22:30:09.012Z,99.90
2018-02-11T22:32:36.705Z,99.90
2018-02-11T22:35:04.338Z,99.90
2018-02-11T22:37:31.988Z,99.90
2018-02-11T22:39:59.636Z,99.90
2018-02-11T22:42:27.279Z,99.90
2018-02-11T22:44:54.908Z,99.90
2018-02-11T22:47:22.566Z,99.90
2018-02-11T22:49:50.237Z,99.90
2018-02-11T22:52:17.875Z,99.90
2018-02-11T22:54:45.544Z,99.90
2018-02-11T22:57:13.218Z,99.90
2018-02-11T22:59:40.867Z,99.90
2018-02-11T23:02:08.519Z,99.90
2018-02-11T23:04:36.182Z,99.90
2018-02-11T23:07:03.849Z,99.90
2018-02-11T23:09:31.507Z,99.90
2018-02-11T23:11:59.259Z,99.90
2018-02-11T23:14:26.943Z,99.90
2018-02-11T23:16:54.622Z,99.90
2018-02-11T23:19:22.235Z,99.90
2018-02-11T23:21:49.847Z,99.90
2018-02-11T23:24:18.252Z,99.90
2018-02-11T23:26:45.871Z,99.90
2018-02-11T23:29:13.541Z,99.90
2018-02-11T23:31:41.172Z,99.90
2018-02-11T23:34:08.826Z,99.90
2018-02-11T23:36:36.525Z,99.90
2018-02-11T23:39:04.161Z,99.90
2018-02-11T23:41:31.784Z,99.90
2018-02-11T23:43:59.450Z,99.90
2018-02-11T23:46:27.110Z,99.90
2018-02-11T23:48:54.741Z,99.90
2018-02-11T23:51:22.387Z,99.90
2018-02-11T23:53:50.071Z,99.90
2018-02-11T23:56:17.734Z,99.90
2018-02-11T23:58:45.394Z,99.90
